sensor_id;sensor_type;location;lat;lon;timestamp;pressure;altitude;pressure_sealevel;temperature;humidity
76132;BME280;64877;50.994;13.650;2024-02-26T00:02:05;98388.97;;;2.51;98.81
76132;BME280;64877;50.994;13.650;2024-02-26T00:04:30;98394.94;;;2.54;98.74
76132;BME280;64877;50.994;13.650;2024-02-26T00:06:56;98396.84;;;2.52;98.45
76132;BME280;64877;50.994;13.650;2024-02-26T00:09:21;98396.41;;;2.46;98.97
76132;BME280;64877;50.994;13.650;2024-02-26T00:11:47;98398.22;;;2.45;99.30
76132;BME280;64877;50.994;13.650;2024-02-26T00:14:12;98396.13;;;2.36;98.94
76132;BME280;64877;50.994;13.650;2024-02-26T00:16:42;98392.72;;;2.34;98.46
76132;BME280;64877;50.994;13.650;2024-02-26T00:19:07;98391.66;;;2.37;98.49
76132;BME280;64877;50.994;13.650;2024-02-26T00:21:33;98398.69;;;2.38;99.45
76132;BME280;64877;50.994;13.650;2024-02-26T00:23:58;98378.44;;;2.35;98.99
76132;BME280;64877;50.994;13.650;2024-02-26T00:26:23;98380.16;;;2.36;99.34
76132;BME280;64877;50.994;13.650;2024-02-26T00:28:49;98387.28;;;2.36;98.80
76132;BME280;64877;50.994;13.650;2024-02-26T00:31:14;98386.50;;;2.33;98.84
76132;BME280;64877;50.994;13.650;2024-02-26T00:33:40;98386.50;;;2.33;99.26
76132;BME280;64877;50.994;13.650;2024-02-26T00:36:05;98376.63;;;2.36;98.51
76132;BME280;64877;50.994;13.650;2024-02-26T00:38:31;98374.94;;;2.35;98.47
76132;BME280;64877;50.994;13.650;2024-02-26T00:40:56;98373.53;;;2.29;99.04
76132;BME280;64877;50.994;13.650;2024-02-26T00:43:22;98369.25;;;2.26;98.50
76132;BME280;64877;50.994;13.650;2024-02-26T00:45:47;98366.13;;;2.20;98.08
76132;BME280;64877;50.994;13.650;2024-02-26T00:48:13;98361.09;;;2.15;99.12
76132;BME280;64877;50.994;13.650;2024-02-26T00:50:39;98361.28;;;2.12;99.40
76132;BME280;64877;50.994;13.650;2024-02-26T00:53:05;98361.94;;;2.16;99.60
76132;BME280;64877;50.994;13.650;2024-02-26T00:55:31;98366.31;;;2.17;100.00
76132;BME280;64877;50.994;13.650;2024-02-26T00:57:56;98368.97;;;2.17;99.58
76132;BME280;64877;50.994;13.650;2024-02-26T01:00:21;98362.81;;;2.16;98.64
76132;BME280;64877;50.994;13.650;2024-02-26T01:02:47;98360.31;;;2.13;98.90
76132;BME280;64877;50.994;13.650;2024-02-26T01:05:13;98357.78;;;2.12;98.95
76132;BME280;64877;50.994;13.650;2024-02-26T01:07:39;98355.94;;;2.12;98.54
76132;BME280;64877;50.994;13.650;2024-02-26T01:10:06;98349.13;;;2.08;98.92
76132;BME280;64877;50.994;13.650;2024-02-26T01:12:32;98348.94;;;2.11;99.12
76132;BME280;64877;50.994;13.650;2024-02-26T01:14:58;98347.97;;;2.12;99.32
76132;BME280;64877;50.994;13.650;2024-02-26T01:17:23;98343.59;;;2.11;99.05
76132;BME280;64877;50.994;13.650;2024-02-26T01:19:49;98339.31;;;2.08;98.78
76132;BME280;64877;50.994;13.650;2024-02-26T01:22:14;98345.72;;;2.06;99.49
76132;BME280;64877;50.994;13.650;2024-02-26T01:24:39;98342.31;;;2.04;99.14
76132;BME280;64877;50.994;13.650;2024-02-26T01:27:05;98347.63;;;2.04;99.18
76132;BME280;64877;50.994;13.650;2024-02-26T01:29:31;98343.34;;;2.01;98.72
76132;BME280;64877;50.994;13.650;2024-02-26T01:31:57;98340.78;;;2.00;99.24
76132;BME280;64877;50.994;13.650;2024-02-26T01:34:22;98332.03;;;1.98;98.68
76132;BME280;64877;50.994;13.650;2024-02-26T01:36:47;98334.13;;;1.93;98.71
76132;BME280;64877;50.994;13.650;2024-02-26T01:39:13;98333.38;;;1.91;98.63
76132;BME280;64877;50.994;13.650;2024-02-26T01:41:39;98323.03;;;1.86;99.68
76132;BME280;64877;50.994;13.650;2024-02-26T01:44:05;98324.06;;;1.84;99.59
76132;BME280;64877;50.994;13.650;2024-02-26T01:46:33;98324.53;;;1.90;99.33
76132;BME280;64877;50.994;13.650;2024-02-26T01:48:59;98320.06;;;1.91;99.12
76132;BME280;64877;50.994;13.650;2024-02-26T01:51:25;98315.03;;;1.86;99.81
76132;BME280;64877;50.994;13.650;2024-02-26T01:53:51;98311.72;;;1.83;100.00
76132;BME280;64877;50.994;13.650;2024-02-26T01:56:18;98312.66;;;1.81;100.00
76132;BME280;64877;50.994;13.650;2024-02-26T01:58:45;98310.97;;;1.80;100.00
76132;BME280;64877;50.994;13.650;2024-02-26T02:01:11;98304.88;;;1.78;99.06
76132;BME280;64877;50.994;13.650;2024-02-26T02:03:37;98315.06;;;1.72;99.92
76132;BME280;64877;50.994;13.650;2024-02-26T02:06:03;98298.06;;;1.74;99.84
76132;BME280;64877;50.994;13.650;2024-02-26T02:08:29;98305.28;;;1.72;99.89
76132;BME280;64877;50.994;13.650;2024-02-26T02:10:55;98301.66;;;1.73;100.00
76132;BME280;64877;50.994;13.650;2024-02-26T02:13:20;98303.28;;;1.76;100.00
76132;BME280;64877;50.994;13.650;2024-02-26T02:15:46;98311.72;;;1.68;99.96
76132;BME280;64877;50.994;13.650;2024-02-26T02:18:11;98305.56;;;1.53;100.00
76132;BME280;64877;50.994;13.650;2024-02-26T02:20:37;98301.66;;;1.59;100.00
76132;BME280;64877;50.994;13.650;2024-02-26T02:23:02;98294.00;;;1.54;100.00
76132;BME280;64877;50.994;13.650;2024-02-26T02:25:28;98293.13;;;1.54;100.00
76132;BME280;64877;50.994;13.650;2024-02-26T02:27:55;98294.09;;;1.53;100.00
76132;BME280;64877;50.994;13.650;2024-02-26T02:30:24;98296.84;;;1.51;100.00
76132;BME280;64877;50.994;13.650;2024-02-26T02:32:50;98295.03;;;1.52;100.00
76132;BME280;64877;50.994;13.650;2024-02-26T02:35:16;98299.00;;;1.59;100.00
76132;BME280;64877;50.994;13.650;2024-02-26T02:37:42;98288.28;;;1.61;100.00
76132;BME280;64877;50.994;13.650;2024-02-26T02:40:07;98288.19;;;1.62;100.00
76132;BME280;64877;50.994;13.650;2024-02-26T02:42:33;98295.41;;;1.60;100.00
76132;BME280;64877;50.994;13.650;2024-02-26T02:44:58;98286.47;;;1.61;100.00
76132;BME280;64877;50.994;13.650;2024-02-26T02:47:24;98293.69;;;1.59;100.00
76132;BME280;64877;50.994;13.650;2024-02-26T02:49:49;98290.28;;;1.57;100.00
76132;BME280;64877;50.994;13.650;2024-02-26T02:52:15;98293.91;;;1.56;100.00
76132;BME280;64877;50.994;13.650;2024-02-26T02:54:40;98291.41;;;1.53;100.00
76132;BME280;64877;50.994;13.650;2024-02-26T02:57:08;98301.09;;;1.54;100.00
76132;BME280;64877;50.994;13.650;2024-02-26T02:59:33;98302.16;;;1.51;100.00
76132;BME280;64877;50.994;13.650;2024-02-26T03:01:59;98307.47;;;1.51;100.00
76132;BME280;64877;50.994;13.650;2024-02-26T03:04:24;98298.38;;;1.55;100.00
76132;BME280;64877;50.994;13.650;2024-02-26T03:06:50;98304.94;;;1.50;100.00
76132;BME280;64877;50.994;13.650;2024-02-26T03:09:15;98309.19;;;1.52;100.00
76132;BME280;64877;50.994;13.650;2024-02-26T03:11:40;98309.19;;;1.52;100.00
76132;BME280;64877;50.994;13.650;2024-02-26T03:14:06;98304.72;;;1.53;100.00
76132;BME280;64877;50.994;13.650;2024-02-26T03:16:32;98304.06;;;1.49;100.00
76132;BME280;64877;50.994;13.650;2024-02-26T03:18:57;98300.47;;;1.50;100.00
76132;BME280;64877;50.994;13.650;2024-02-26T03:21:24;98303.41;;;1.46;100.00
76132;BME280;64877;50.994;13.650;2024-02-26T03:23:50;98308.72;;;1.46;100.00
76132;BME280;64877;50.994;13.650;2024-02-26T03:26:15;98318.59;;;1.44;100.00
76132;BME280;64877;50.994;13.650;2024-02-26T03:28:41;98315.19;;;1.42;99.85
76132;BME280;64877;50.994;13.650;2024-02-26T03:31:06;98311.78;;;1.40;99.76
76132;BME280;64877;50.994;13.650;2024-02-26T03:33:32;98319.25;;;1.33;99.98
76132;BME280;64877;50.994;13.650;2024-02-26T03:35:57;98317.44;;;1.34;100.00
76132;BME280;64877;50.994;13.650;2024-02-26T03:38:22;98325.16;;;1.38;100.00
76132;BME280;64877;50.994;13.650;2024-02-26T03:40:48;98314.72;;;1.35;100.00
76132;BME280;64877;50.994;13.650;2024-02-26T03:43:13;98319.94;;;1.37;100.00
76132;BME280;64877;50.994;13.650;2024-02-26T03:45:39;98321.47;;;1.41;100.00
76132;BME280;64877;50.994;13.650;2024-02-26T03:48:05;98326.78;;;1.41;100.00
76132;BME280;64877;50.994;13.650;2024-02-26T03:50:30;98318.69;;;1.42;100.00
76132;BME280;64877;50.994;13.650;2024-02-26T03:52:56;98313.75;;;1.36;100.00
76132;BME280;64877;50.994;13.650;2024-02-26T03:55:23;98321.47;;;1.41;100.00
76132;BME280;64877;50.994;13.650;2024-02-26T03:57:53;98319.75;;;1.40;100.00
76132;BME280;64877;50.994;13.650;2024-02-26T04:00:19;98331.31;;;1.39;100.00
76132;BME280;64877;50.994;13.650;2024-02-26T04:02:44;98330.75;;;1.34;100.00
76132;BME280;64877;50.994;13.650;2024-02-26T04:05:10;98336.44;;;1.27;100.00
76132;BME280;64877;50.994;13.650;2024-02-26T04:07:36;98336.66;;;1.24;100.00
76132;BME280;64877;50.994;13.650;2024-02-26T04:10:02;98339.22;;;1.26;100.00
76132;BME280;64877;50.994;13.650;2024-02-26T04:12:30;98334.00;;;1.24;100.00
76132;BME280;64877;50.994;13.650;2024-02-26T04:14:56;98328.06;;;1.19;100.00
76132;BME280;64877;50.994;13.650;2024-02-26T04:17:21;98333.03;;;1.25;100.00
76132;BME280;64877;50.994;13.650;2024-02-26T04:19:47;98329.25;;;1.29;100.00
76132;BME280;64877;50.994;13.650;2024-02-26T04:22:12;98329.25;;;1.29;100.00
76132;BME280;64877;50.994;13.650;2024-02-26T04:24:38;98333.63;;;1.31;100.00
76132;BME280;64877;50.994;13.650;2024-02-26T04:27:03;98330.19;;;1.28;100.00
76132;BME280;64877;50.994;13.650;2024-02-26T04:29:29;98322.31;;;1.27;100.00
76132;BME280;64877;50.994;13.650;2024-02-26T04:31:54;98319.06;;;1.22;100.00
76132;BME280;64877;50.994;13.650;2024-02-26T04:34:19;98327.91;;;1.22;100.00
76132;BME280;64877;50.994;13.650;2024-02-26T04:36:45;98321.06;;;1.18;99.51
76132;BME280;64877;50.994;13.650;2024-02-26T04:39:10;98325.63;;;1.16;100.00
76132;BME280;64877;50.994;13.650;2024-02-26T04:41:36;98328.28;;;1.16;100.00
76132;BME280;64877;50.994;13.650;2024-02-26T04:44:02;98326.47;;;1.17;100.00
76132;BME280;64877;50.994;13.650;2024-02-26T04:46:27;98337.22;;;1.15;100.00
76132;BME280;64877;50.994;13.650;2024-02-26T04:48:53;98332.06;;;1.12;100.00
76132;BME280;64877;50.994;13.650;2024-02-26T04:51:19;98338.06;;;1.16;100.00
76132;BME280;64877;50.994;13.650;2024-02-26T04:53:44;98335.47;;;1.14;100.00
76132;BME280;64877;50.994;13.650;2024-02-26T04:56:10;98338.06;;;1.16;100.00
76132;BME280;64877;50.994;13.650;2024-02-26T04:58:35;98335.69;;;1.11;100.00
76132;BME280;64877;50.994;13.650;2024-02-26T05:01:01;98338.13;;;1.14;100.00
76132;BME280;64877;50.994;13.650;2024-02-26T05:03:26;98339.66;;;1.18;100.00
76132;BME280;64877;50.994;13.650;2024-02-26T05:05:51;98343.66;;;1.11;100.00
76132;BME280;64877;50.994;13.650;2024-02-26T05:08:17;98351.44;;;1.14;100.00
76132;BME280;64877;50.994;13.650;2024-02-26T05:10:45;98349.06;;;1.10;100.00
76132;BME280;64877;50.994;13.650;2024-02-26T05:13:10;98349.16;;;1.08;100.00
76132;BME280;64877;50.994;13.650;2024-02-26T05:15:36;98352.66;;;1.09;100.00
76132;BME280;64877;50.994;13.650;2024-02-26T05:18:02;98352.00;;;1.05;100.00
76132;BME280;64877;50.994;13.650;2024-02-26T05:20:28;98357.88;;;0.96;100.00
76132;BME280;64877;50.994;13.650;2024-02-26T05:22:54;98356.06;;;0.96;100.00
76132;BME280;64877;50.994;13.650;2024-02-26T05:25:19;98363.19;;;0.96;100.00
76132;BME280;64877;50.994;13.650;2024-02-26T05:27:45;98361.28;;;0.98;100.00
76132;BME280;64877;50.994;13.650;2024-02-26T05:30:11;98363.66;;;1.02;100.00
76132;BME280;64877;50.994;13.650;2024-02-26T05:32:36;98369.09;;;1.01;100.00
76132;BME280;64877;50.994;13.650;2024-02-26T05:35:02;98366.44;;;1.01;100.00
76132;BME280;64877;50.994;13.650;2024-02-26T05:37:31;98374.47;;;0.99;100.00
76132;BME280;64877;50.994;13.650;2024-02-26T05:39:56;98364.88;;;0.97;100.00
76132;BME280;64877;50.994;13.650;2024-02-26T05:42:22;98373.44;;;1.02;100.00
76132;BME280;64877;50.994;13.650;2024-02-26T05:44:47;98371.53;;;1.04;100.00
76132;BME280;64877;50.994;13.650;2024-02-26T05:47:12;98374.97;;;1.06;100.00
76132;BME280;64877;50.994;13.650;2024-02-26T05:49:39;98374.28;;;1.02;100.00
76132;BME280;64877;50.994;13.650;2024-02-26T05:52:05;98380.09;;;1.09;100.00
76132;BME280;64877;50.994;13.650;2024-02-26T05:54:31;98377.38;;;1.11;100.00
76132;BME280;64877;50.994;13.650;2024-02-26T05:56:57;98379.25;;;1.09;100.00
76132;BME280;64877;50.994;13.650;2024-02-26T05:59:22;98382.84;;;1.08;100.00
76132;BME280;64877;50.994;13.650;2024-02-26T06:01:48;98373.44;;;1.02;100.00
76132;BME280;64877;50.994;13.650;2024-02-26T06:04:13;98376.84;;;1.04;100.00
76132;BME280;64877;50.994;13.650;2024-02-26T06:06:39;98377.25;;;1.12;100.00
76132;BME280;64877;50.994;13.650;2024-02-26T06:09:04;98377.00;;;1.17;100.00
76132;BME280;64877;50.994;13.650;2024-02-26T06:11:30;98373.28;;;1.19;100.00
76132;BME280;64877;50.994;13.650;2024-02-26T06:13:56;98374.06;;;1.21;100.00
76132;BME280;64877;50.994;13.650;2024-02-26T06:16:21;98375.47;;;1.27;100.00
76132;BME280;64877;50.994;13.650;2024-02-26T06:18:47;98376.81;;;1.34;100.00
76132;BME280;64877;50.994;13.650;2024-02-26T06:21:12;98385.88;;;1.46;100.00
76132;BME280;64877;50.994;13.650;2024-02-26T06:23:41;98384.63;;;1.51;100.00
76132;BME280;64877;50.994;13.650;2024-02-26T06:26:06;98383.22;;;1.60;100.00
76132;BME280;64877;50.994;13.650;2024-02-26T06:28:32;98381.88;;;1.67;100.00
76132;BME280;64877;50.994;13.650;2024-02-26T06:30:59;98385.56;;;1.79;99.47
76132;BME280;64877;50.994;13.650;2024-02-26T06:33:24;98382.81;;;1.95;99.33
76132;BME280;64877;50.994;13.650;2024-02-26T06:35:50;98380.47;;;2.17;99.05
76132;BME280;64877;50.994;13.650;2024-02-26T06:38:15;98381.13;;;2.35;98.35
76132;BME280;64877;50.994;13.650;2024-02-26T06:40:41;98386.09;;;2.54;97.59
76132;BME280;64877;50.994;13.650;2024-02-26T06:43:06;98371.78;;;2.82;97.42
76132;BME280;64877;50.994;13.650;2024-02-26T06:45:31;98377.41;;;3.04;96.42
76132;BME280;64877;50.994;13.650;2024-02-26T06:47:58;98378.28;;;3.30;93.14
76132;BME280;64877;50.994;13.650;2024-02-26T06:50:23;98365.69;;;3.45;91.20
76132;BME280;64877;50.994;13.650;2024-02-26T06:52:48;98357.66;;;3.71;91.48
76132;BME280;64877;50.994;13.650;2024-02-26T06:55:14;98364.47;;;4.00;90.26
76132;BME280;64877;50.994;13.650;2024-02-26T06:57:39;98356.72;;;4.21;89.10
76132;BME280;64877;50.994;13.650;2024-02-26T07:00:05;98359.81;;;4.28;88.00
76132;BME280;64877;50.994;13.650;2024-02-26T07:02:31;98365.91;;;4.54;87.22
76132;BME280;64877;50.994;13.650;2024-02-26T07:04:56;98367.69;;;4.77;86.74
76132;BME280;64877;50.994;13.650;2024-02-26T07:07:23;98372.00;;;5.26;84.28
76132;BME280;64877;50.994;13.650;2024-02-26T07:09:49;98367.22;;;5.54;81.37
76132;BME280;64877;50.994;13.650;2024-02-26T07:12:15;98366.91;;;5.92;80.71
76132;BME280;64877;50.994;13.650;2024-02-26T07:14:41;98371.16;;;5.94;79.00
76132;BME280;64877;50.994;13.650;2024-02-26T07:17:07;98372.59;;;6.21;75.70
76132;BME280;64877;50.994;13.650;2024-02-26T07:19:33;98373.72;;;5.96;77.04
76132;BME280;64877;50.994;13.650;2024-02-26T07:21:59;98372.44;;;5.66;75.61
76132;BME280;64877;50.994;13.650;2024-02-26T07:24:27;98377.84;;;5.89;76.89
76132;BME280;64877;50.994;13.650;2024-02-26T07:26:52;98361.03;;;5.87;76.68
76132;BME280;64877;50.994;13.650;2024-02-26T07:29:19;98369.19;;;5.96;77.65
76132;BME280;64877;50.994;13.650;2024-02-26T07:31:45;98374.19;;;6.01;78.11
76132;BME280;64877;50.994;13.650;2024-02-26T07:34:10;98367.22;;;5.76;78.19
76132;BME280;64877;50.994;13.650;2024-02-26T07:36:36;98371.88;;;5.96;76.88
76132;BME280;64877;50.994;13.650;2024-02-26T07:39:02;98377.00;;;6.11;78.24
76132;BME280;64877;50.994;13.650;2024-02-26T07:41:27;98369.66;;;6.35;77.64
76132;BME280;64877;50.994;13.650;2024-02-26T07:43:52;98367.75;;;6.69;76.41
76132;BME280;64877;50.994;13.650;2024-02-26T07:46:18;98370.41;;;7.13;74.63
76132;BME280;64877;50.994;13.650;2024-02-26T07:48:43;98361.53;;;7.64;72.03
76132;BME280;64877;50.994;13.650;2024-02-26T07:51:11;98362.06;;;8.59;70.24
76132;BME280;64877;50.994;13.650;2024-02-26T07:53:37;98366.53;;;9.09;65.42
76132;BME280;64877;50.994;13.650;2024-02-26T07:56:02;98360.97;;;9.39;65.20
76132;BME280;64877;50.994;13.650;2024-02-26T07:58:28;98358.28;;;10.33;60.44
76132;BME280;64877;50.994;13.650;2024-02-26T08:00:54;98352.38;;;11.28;55.32
76132;BME280;64877;50.994;13.650;2024-02-26T08:03:19;98362.44;;;11.00;57.41
76132;BME280;64877;50.994;13.650;2024-02-26T08:05:44;98355.69;;;11.40;56.74
76132;BME280;64877;50.994;13.650;2024-02-26T08:08:10;98352.31;;;11.82;54.54
76132;BME280;64877;50.994;13.650;2024-02-26T08:10:35;98352.00;;;11.85;54.50
76132;BME280;64877;50.994;13.650;2024-02-26T08:13:01;98356.81;;;11.99;53.81
76132;BME280;64877;50.994;13.650;2024-02-26T08:15:34;98361.28;;;12.16;53.45
76132;BME280;64877;50.994;13.650;2024-02-26T08:18:03;98364.34;;;12.13;54.65
76132;BME280;64877;50.994;13.650;2024-02-26T08:20:30;98362.38;;;11.98;53.95
76132;BME280;64877;50.994;13.650;2024-02-26T08:22:56;98364.13;;;12.07;53.83
76132;BME280;64877;50.994;13.650;2024-02-26T08:25:22;98365.56;;;12.19;53.94
76132;BME280;64877;50.994;13.650;2024-02-26T08:27:48;98366.53;;;12.52;53.44
76132;BME280;64877;50.994;13.650;2024-02-26T08:30:16;98366.88;;;12.15;55.23
76132;BME280;64877;50.994;13.650;2024-02-26T08:32:43;98363.91;;;12.00;55.14
76132;BME280;64877;50.994;13.650;2024-02-26T08:35:09;98362.72;;;11.77;56.60
76132;BME280;64877;50.994;13.650;2024-02-26T08:37:34;98369.06;;;11.68;57.79
76132;BME280;64877;50.994;13.650;2024-02-26T08:40:00;98360.84;;;11.51;58.88
76132;BME280;64877;50.994;13.650;2024-02-26T08:42:25;98361.41;;;11.37;60.55
76132;BME280;64877;50.994;13.650;2024-02-26T08:44:51;98362.91;;;11.57;60.66
76132;BME280;64877;50.994;13.650;2024-02-26T08:47:16;98367.81;;;11.80;59.85
76132;BME280;64877;50.994;13.650;2024-02-26T08:49:43;98373.63;;;11.85;60.12
76132;BME280;64877;50.994;13.650;2024-02-26T08:52:09;98375.50;;;11.67;62.25
76132;BME280;64877;50.994;13.650;2024-02-26T08:54:34;98380.06;;;11.48;62.76
76132;BME280;64877;50.994;13.650;2024-02-26T08:57:00;98381.19;;;11.20;65.65
76132;BME280;64877;50.994;13.650;2024-02-26T08:59:25;98375.91;;;10.82;67.77
76132;BME280;64877;50.994;13.650;2024-02-26T09:01:51;98367.97;;;10.99;68.18
76132;BME280;64877;50.994;13.650;2024-02-26T09:04:16;98382.25;;;10.91;68.26
76132;BME280;64877;50.994;13.650;2024-02-26T09:06:42;98368.13;;;10.79;69.00
76132;BME280;64877;50.994;13.650;2024-02-26T09:09:07;98370.91;;;10.70;69.61
76132;BME280;64877;50.994;13.650;2024-02-26T09:11:32;98373.66;;;10.60;69.27
76132;BME280;64877;50.994;13.650;2024-02-26T09:13:58;98370.28;;;10.48;70.88
76132;BME280;64877;50.994;13.650;2024-02-26T09:16:24;98365.00;;;10.56;70.02
76132;BME280;64877;50.994;13.650;2024-02-26T09:18:49;98367.47;;;10.50;71.50
76132;BME280;64877;50.994;13.650;2024-02-26T09:21:14;98377.00;;;10.07;73.31
76132;BME280;64877;50.994;13.650;2024-02-26T09:23:41;98383.53;;;10.04;73.27
76132;BME280;64877;50.994;13.650;2024-02-26T09:26:06;98376.09;;;10.26;72.70
76132;BME280;64877;50.994;13.650;2024-02-26T09:28:32;98387.06;;;10.15;72.32
76132;BME280;64877;50.994;13.650;2024-02-26T09:31:04;98374.09;;;10.55;71.32
76132;BME280;64877;50.994;13.650;2024-02-26T09:33:29;98373.59;;;10.70;70.01
76132;BME280;64877;50.994;13.650;2024-02-26T09:35:54;98378.63;;;10.82;70.02
76132;BME280;64877;50.994;13.650;2024-02-26T09:38:20;98394.91;;;11.08;69.44
76132;BME280;64877;50.994;13.650;2024-02-26T09:40:45;98384.19;;;10.53;70.93
76132;BME280;64877;50.994;13.650;2024-02-26T09:43:14;98373.88;;;10.67;71.47
76132;BME280;64877;50.994;13.650;2024-02-26T09:45:41;98376.25;;;10.79;70.45
76132;BME280;64877;50.994;13.650;2024-02-26T09:48:08;98382.66;;;10.51;72.30
76132;BME280;64877;50.994;13.650;2024-02-26T09:50:36;98381.59;;;10.61;72.32
76132;BME280;64877;50.994;13.650;2024-02-26T09:53:03;98383.72;;;10.58;72.34
76132;BME280;64877;50.994;13.650;2024-02-26T09:55:30;98393.25;;;10.62;72.27
76132;BME280;64877;50.994;13.650;2024-02-26T09:57:57;98384.19;;;10.53;72.36
76132;BME280;64877;50.994;13.650;2024-02-26T10:00:25;98389.59;;;10.53;72.41
76132;BME280;64877;50.994;13.650;2024-02-26T10:02:55;98383.22;;;10.72;72.30
76132;BME280;64877;50.994;13.650;2024-02-26T10:05:23;98399.19;;;10.66;72.37
76132;BME280;64877;50.994;13.650;2024-02-26T10:07:50;98407.03;;;10.59;72.26
76132;BME280;64877;50.994;13.650;2024-02-26T10:10:17;98408.41;;;10.45;73.47
76132;BME280;64877;50.994;13.650;2024-02-26T10:12:43;98408.97;;;10.39;73.07
76132;BME280;64877;50.994;13.650;2024-02-26T10:15:09;98400.28;;;10.45;73.88
76132;BME280;64877;50.994;13.650;2024-02-26T10:17:35;98402.03;;;10.64;72.88
76132;BME280;64877;50.994;13.650;2024-02-26T10:20:18;98394.00;;;10.54;73.18
76132;BME280;64877;50.994;13.650;2024-02-26T10:22:46;98401.50;;;10.60;72.91
76132;BME280;64877;50.994;13.650;2024-02-26T10:25:12;98397.56;;;10.73;72.93
76132;BME280;64877;50.994;13.650;2024-02-26T10:27:40;98393.13;;;10.81;72.07
76132;BME280;64877;50.994;13.650;2024-02-26T10:30:22;98395.50;;;10.67;72.76
76132;BME280;64877;50.994;13.650;2024-02-26T10:32:49;98393.06;;;10.64;72.98
76132;BME280;64877;50.994;13.650;2024-02-26T10:35:15;98393.13;;;10.81;73.03
76132;BME280;64877;50.994;13.650;2024-02-26T10:37:41;98393.13;;;10.81;72.77
76132;BME280;64877;50.994;13.650;2024-02-26T10:40:11;98391.94;;;10.84;72.15
76132;BME280;64877;50.994;13.650;2024-02-26T10:42:36;98407.06;;;10.77;71.15
76132;BME280;64877;50.994;13.650;2024-02-26T10:45:03;98405.44;;;10.66;71.15
76132;BME280;64877;50.994;13.650;2024-02-26T10:47:29;98402.50;;;10.59;70.75
76132;BME280;64877;50.994;13.650;2024-02-26T10:49:56;98403.88;;;10.91;75.27
76132;BME280;64877;50.994;13.650;2024-02-26T10:52:22;98396.56;;;10.74;70.91
76132;BME280;64877;50.994;13.650;2024-02-26T10:54:53;98399.81;;;10.59;72.81
76132;BME280;64877;50.994;13.650;2024-02-26T10:57:19;98402.19;;;10.63;72.50
76132;BME280;64877;50.994;13.650;2024-02-26T10:59:47;98401.38;;;10.80;71.86
76132;BME280;64877;50.994;13.650;2024-02-26T11:02:13;98398.88;;;10.69;71.77
76132;BME280;64877;50.994;13.650;2024-02-26T11:04:40;98408.94;;;10.76;71.77
76132;BME280;64877;50.994;13.650;2024-02-26T11:07:05;98413.78;;;10.73;72.31
76132;BME280;64877;50.994;13.650;2024-02-26T11:09:33;98395.38;;;10.58;71.92
76132;BME280;64877;50.994;13.650;2024-02-26T11:11:59;98407.88;;;10.32;73.62
76132;BME280;64877;50.994;13.650;2024-02-26T11:14:26;98407.03;;;10.22;74.26
76132;BME280;64877;50.994;13.650;2024-02-26T11:16:52;98406.53;;;10.46;73.66
76132;BME280;64877;50.994;13.650;2024-02-26T11:19:19;98392.38;;;10.61;73.52
76132;BME280;64877;50.994;13.650;2024-02-26T11:21:44;98396.88;;;10.71;73.10
76132;BME280;64877;50.994;13.650;2024-02-26T11:24:12;98399.38;;;10.82;72.28
76132;BME280;64877;50.994;13.650;2024-02-26T11:26:43;98403.69;;;10.75;71.99
76132;BME280;64877;50.994;13.650;2024-02-26T11:29:12;98398.81;;;10.78;71.90
76132;BME280;64877;50.994;13.650;2024-02-26T11:31:39;98392.44;;;10.97;70.32
76132;BME280;64877;50.994;13.650;2024-02-26T11:34:07;98407.38;;;10.74;71.02
76132;BME280;64877;50.994;13.650;2024-02-26T11:36:34;98398.88;;;10.69;70.71
76132;BME280;64877;50.994;13.650;2024-02-26T11:38:59;98408.38;;;10.73;69.76
76132;BME280;64877;50.994;13.650;2024-02-26T11:41:25;98409.84;;;10.67;70.92
76132;BME280;64877;50.994;13.650;2024-02-26T11:43:52;98400.31;;;10.63;71.60
76132;BME280;64877;50.994;13.650;2024-02-26T11:46:32;98399.53;;;10.53;71.27
76132;BME280;64877;50.994;13.650;2024-02-26T11:49:47;98393.56;;;10.77;70.78
76132;BME280;64877;50.994;13.650;2024-02-26T11:51:51;98397.69;;;10.81;70.00
76132;BME280;64877;50.994;13.650;2024-02-26T11:54:40;98393.88;;;10.74;70.97
76132;BME280;64877;50.994;13.650;2024-02-26T11:57:28;98402.84;;;10.92;70.67
76132;BME280;64877;50.994;13.650;2024-02-26T11:59:55;98402.63;;;10.85;70.39
76132;BME280;64877;50.994;13.650;2024-02-26T12:02:40;98393.69;;;10.85;70.31
76132;BME280;64877;50.994;13.650;2024-02-26T12:05:17;98392.63;;;10.68;70.92
76132;BME280;64877;50.994;13.650;2024-02-26T12:07:59;98403.28;;;10.70;71.04
76132;BME280;64877;50.994;13.650;2024-02-26T12:10:36;98405.72;;;10.63;70.68
76132;BME280;64877;50.994;13.650;2024-02-26T12:13:13;98407.41;;;10.64;69.99
76132;BME280;64877;50.994;13.650;2024-02-26T12:15:43;98419.28;;;10.53;71.51
76132;BME280;64877;50.994;13.650;2024-02-26T12:18:10;98419.03;;;10.74;70.24
76132;BME280;64877;50.994;13.650;2024-02-26T12:20:39;98409.09;;;10.75;71.11
76132;BME280;64877;50.994;13.650;2024-02-26T12:23:05;98417.59;;;10.80;70.73
76132;BME280;64877;50.994;13.650;2024-02-26T12:25:31;98417.25;;;10.83;70.03
76132;BME280;64877;50.994;13.650;2024-02-26T12:27:58;98415.69;;;10.90;70.64
76132;BME280;64877;50.994;13.650;2024-02-26T12:30:24;98422.16;;;10.97;69.40
76132;BME280;64877;50.994;13.650;2024-02-26T12:32:52;98417.47;;;10.99;69.47
76132;BME280;64877;50.994;13.650;2024-02-26T12:35:18;98417.88;;;10.77;69.54
76132;BME280;64877;50.994;13.650;2024-02-26T12:37:44;98417.31;;;10.73;70.58
76132;BME280;64877;50.994;13.650;2024-02-26T12:40:10;98412.47;;;10.77;70.10
76132;BME280;64877;50.994;13.650;2024-02-26T12:42:36;98416.41;;;10.82;70.89
76132;BME280;64877;50.994;13.650;2024-02-26T12:45:10;98423.97;;;10.79;70.57
76132;BME280;64877;50.994;13.650;2024-02-26T12:47:39;98432.22;;;10.77;69.90
76132;BME280;64877;50.994;13.650;2024-02-26T12:50:06;98417.97;;;10.85;68.76